»·PEaware :: N256Z KFLG-KLAM

N256Z :: KFLG-KLAM

FLIGHT INFORMATION

Flight Status: Arrived
Operator: Privately registered:
United States
More flights under this callsign
Pilot: Gregory A. (9731)
Aircraft: PIPER PA-46-500TP MALIBU MERIDIAN
(P46T)
More flights by this aircraft type
Origin: KFLG Flagstaff Pulliam
United States
Destination: KLAM Los Alamos
United States
More flights between these airports :: More routes between these airports
Route: FLG1 OATES GUP J8 FLYBY
File this flight plan on PilotEdge
Remarks:
Altitude:
(Current/Filed)
290ft
Speed:
(Current/Filed)
274kts
Departed: 29-Jul-18 12:35 PM
Arrived: 29-Jul-18 02:57 PM
Distance/Time
Traveled:
267nm/2:22
Distance/Time
To Go:
Arrived

Flight Plot

Page will automatically refresh every two minutes.

Flight plan parsing failed; only flown route is shown


Map Options




Map Legend


Flown Route
Filed Route
Departure Airport
Arrival Airport
Navaid (VOR, NDB)
Fix

Horizontal Profiles

Position Reports

Time Latitude Longitude Heading Altitude Ground
Speed
29-Jul-18 11:53 35.135999 -111.676231 221 7015ft 0kts
29-Jul-18 11:54 35.135999 -111.676231 221 7015ft 0kts
29-Jul-18 11:55 35.135999 -111.676231 221 7015ft 0kts
29-Jul-18 11:56 35.135999 -111.676231 221 7015ft 0kts
29-Jul-18 11:57 35.135999 -111.676231 221 7015ft 0kts
29-Jul-18 11:58 35.135999 -111.676231 221 7015ft 0kts
29-Jul-18 11:59 35.135999 -111.676231 221 7015ft 0kts
29-Jul-18 12:00 35.135999 -111.676231 221 7015ft 0kts
29-Jul-18 12:01 35.135999 -111.676231 221 7015ft 0kts
29-Jul-18 12:02 35.135999 -111.676231 221 7015ft 0kts
29-Jul-18 12:03 35.135999 -111.676231 221 7015ft 0kts
29-Jul-18 12:04 35.135999 -111.676231 221 7015ft 0kts
29-Jul-18 12:05 35.135999 -111.676231 221 7015ft 0kts
29-Jul-18 12:06 35.135999 -111.676231 221 7015ft 0kts
29-Jul-18 12:07 35.135999 -111.676232 221 7015ft 0kts
29-Jul-18 12:08 35.135997 -111.676234 221 7015ft 0kts
29-Jul-18 12:09 35.135996 -111.676235 221 7015ft 0kts
29-Jul-18 12:10 35.135994 -111.676237 221 7015ft 0kts
29-Jul-18 12:11 35.135993 -111.676238 221 7015ft 0kts
29-Jul-18 12:20 35.133254 -111.678835 310 7015ft 0kts
29-Jul-18 12:21 35.133256 -111.678837 310 7015ft 0kts
29-Jul-18 12:22 35.133258 -111.678839 310 7015ft 0kts
29-Jul-18 12:23 35.133259 -111.678842 310 7015ft 0kts
29-Jul-18 12:24 35.133078 -111.678587 310 7015ft 0kts
29-Jul-18 12:25 35.133080 -111.678590 310 7015ft 0kts
29-Jul-18 12:26 35.133082 -111.678592 310 7015ft 0kts
29-Jul-18 12:27 35.134546 -111.677848 335 7015ft 0kts
29-Jul-18 12:28 35.134547 -111.677848 335 7015ft 0kts
29-Jul-18 12:29 35.135987 -111.675456 41 7015ft 11kts
29-Jul-18 12:30 35.138459 -111.672886 39 7015ft 16kts
29-Jul-18 12:31 35.141331 -111.669825 41 7015ft 11kts
29-Jul-18 12:32 35.143742 -111.667309 42 7015ft 11kts
29-Jul-18 12:33 35.147445 -111.663403 36 7015ft 17kts
29-Jul-18 12:34 35.149916 -111.660348 124 7015ft 0kts
29-Jul-18 12:35 35.149915 -111.660347 125 7015ft 0kts
29-Jul-18 12:36 35.147057 -111.662152 221 7015ft 64kts
29-Jul-18 12:37 35.118044 -111.683513 171 8074ft 174kts
29-Jul-18 12:38 35.068629 -111.656938 172 10012ft 189kts
29-Jul-18 12:39 35.025506 -111.678116 212 12432ft 165kts
29-Jul-18 12:40 34.980975 -111.692778 195 14547ft 168kts
29-Jul-18 12:41 34.931207 -111.700654 192 16578ft 192kts
29-Jul-18 12:42 34.877461 -111.710666 215 18587ft 191kts
29-Jul-18 12:43 34.857881 -111.766181 255 20600ft 177kts
29-Jul-18 12:44 34.845342 -111.824549 255 22600ft 183kts
29-Jul-18 12:45 34.832471 -111.884318 255 24596ft 180kts
29-Jul-18 12:46 34.816974 -111.942583 244 26365ft 186kts
29-Jul-18 12:47 34.774500 -111.982226 206 27504ft 214kts
29-Jul-18 12:48 34.755099 -112.036281 263 29212ft 183kts
29-Jul-18 12:49 34.751201 -112.106351 265 29244ft 227kts
29-Jul-18 12:50 34.747222 -112.179946 264 29248ft 236kts
29-Jul-18 13:17 35.134309 -111.678186 40 7015ft 0kts
29-Jul-18 13:18 35.134309 -111.678186 40 7015ft 0kts
29-Jul-18 13:19 35.134309 -111.678185 40 7015ft 0kts
29-Jul-18 13:20 35.134309 -111.678185 40 7015ft 0kts
29-Jul-18 13:21 35.134309 -111.678185 40 7015ft 0kts
29-Jul-18 13:22 35.134309 -111.678185 40 7015ft 0kts
29-Jul-18 13:23 35.134310 -111.678185 40 7015ft 0kts
29-Jul-18 13:24 35.134311 -111.678184 40 7015ft 0kts
29-Jul-18 13:25 35.134312 -111.678182 40 7015ft 0kts
29-Jul-18 13:26 35.134313 -111.678181 40 7015ft 0kts
29-Jul-18 13:27 35.134315 -111.678180 40 7015ft 0kts
29-Jul-18 13:28 35.134316 -111.678179 40 7015ft 0kts
29-Jul-18 13:29 35.134317 -111.678178 40 7015ft 0kts
29-Jul-18 13:30 35.134318 -111.678176 40 7015ft 0kts
29-Jul-18 13:31 35.134308 -111.677424 80 7015ft 3kts
29-Jul-18 13:32 35.134310 -111.677410 79 7015ft 0kts
29-Jul-18 13:33 35.134310 -111.677410 79 7015ft 0kts
29-Jul-18 13:34 34.135744 -115.943869 90 1847ft 0kts
29-Jul-18 13:35 35.134309 -111.678186 40 7015ft 0kts
29-Jul-18 13:36 35.134309 -111.678185 40 7015ft 0kts
29-Jul-18 13:37 35.134309 -111.678185 40 7015ft 0kts
29-Jul-18 13:38 35.134369 -111.677829 90 7015ft 2kts
29-Jul-18 13:39 35.135088 -111.676442 41 7015ft 0kts
29-Jul-18 13:40 35.135133 -111.676395 40 7015ft 0kts
29-Jul-18 13:41 35.136562 -111.674923 39 7015ft 0kts
29-Jul-18 13:42 35.142010 -111.669197 39 7015ft 40kts
29-Jul-18 13:43 35.147029 -111.663807 35 7015ft 16kts
29-Jul-18 13:44 35.149915 -111.660359 131 7015ft 0kts
29-Jul-18 13:45 35.149915 -111.660359 131 7015ft 0kts
29-Jul-18 13:46 35.149915 -111.660359 131 7015ft 0kts
29-Jul-18 13:47 35.149915 -111.660359 131 7015ft 0kts
29-Jul-18 13:48 35.149584 -111.659899 132 7015ft 3kts
29-Jul-18 13:49 35.136389 -111.673196 222 7396ft 157kts
29-Jul-18 13:50 35.091866 -111.683283 178 9282ft 197kts
29-Jul-18 13:51 35.041053 -111.685585 190 11066ft 179kts
29-Jul-18 13:52 34.988536 -111.692453 189 13253ft 169kts
29-Jul-18 13:53 34.957313 -111.660607 133 15265ft 193kts
29-Jul-18 13:54 34.924493 -111.605151 105 17679ft 211kts
29-Jul-18 13:55 34.927737 -111.534693 82 20080ft 204kts
29-Jul-18 13:56 34.935195 -111.461565 85 22148ft 227kts
29-Jul-18 13:57 34.942492 -111.383109 78 24156ft 238kts
29-Jul-18 13:58 34.956613 -111.304183 74 26153ft 236kts
29-Jul-18 13:59 34.972528 -111.225951 73 27871ft 241kts
29-Jul-18 14:00 34.989541 -111.144061 73 29169ft 266kts
29-Jul-18 14:01 35.009049 -111.049707 74 29237ft 301kts
29-Jul-18 14:02 35.029771 -110.948960 74 29224ft 309kts
29-Jul-18 14:03 35.050858 -110.846478 73 29214ft 311kts
29-Jul-18 14:04 35.072869 -110.744345 72 29211ft 312kts
29-Jul-18 14:05 35.095428 -110.642184 72 29211ft 312kts
29-Jul-18 14:06 35.118149 -110.539554 72 29215ft 312kts
29-Jul-18 14:07 35.140780 -110.437077 72 29219ft 313kts
29-Jul-18 14:08 35.161493 -110.342966 72 29221ft 313kts
29-Jul-18 14:09 35.184059 -110.240012 72 29226ft 314kts
29-Jul-18 14:10 35.206576 -110.136841 72 29231ft 315kts
29-Jul-18 14:11 35.229132 -110.033043 72 29236ft 315kts
29-Jul-18 14:12 35.251049 -109.928949 75 29175ft 319kts
29-Jul-18 14:13 35.264004 -109.821312 82 29182ft 319kts
29-Jul-18 14:14 35.271904 -109.713642 67 29208ft 314kts
29-Jul-18 14:15 35.307429 -109.616907 62 29246ft 313kts
29-Jul-18 14:16 35.333131 -109.530647 68 29247ft 316kts
29-Jul-18 14:17 35.357854 -109.427344 71 29249ft 317kts
29-Jul-18 14:18 35.380664 -109.322775 72 29247ft 317kts
29-Jul-18 14:19 35.402793 -109.218238 72 29248ft 317kts
29-Jul-18 14:20 35.424790 -109.113433 72 29249ft 318kts
29-Jul-18 14:21 35.446836 -109.008166 72 29254ft 318kts
29-Jul-18 14:22 35.468122 -108.902965 77 29258ft 319kts
29-Jul-18 14:23 35.478204 -108.794499 83 29260ft 321kts
29-Jul-18 14:24 35.485181 -108.684831 84 29260ft 322kts
29-Jul-18 14:25 35.491669 -108.575094 84 29257ft 323kts
29-Jul-18 14:26 35.498027 -108.464616 84 29254ft 324kts
29-Jul-18 14:27 35.504224 -108.354281 84 29249ft 325kts
29-Jul-18 14:28 35.510336 -108.243611 84 29245ft 326kts
29-Jul-18 14:29 35.516397 -108.132305 84 29245ft 326kts
29-Jul-18 14:30 35.522344 -108.021109 84 29245ft 326kts
29-Jul-18 14:31 35.528198 -107.909622 84 28919ft 330kts
29-Jul-18 14:32 35.533992 -107.796302 84 28328ft 334kts
29-Jul-18 14:33 35.539749 -107.682397 84 27734ft 334kts
29-Jul-18 14:34 35.545393 -107.568055 84 27138ft 335kts
29-Jul-18 14:35 35.550956 -107.453950 84 26427ft 338kts
29-Jul-18 14:36 35.556509 -107.338172 84 25390ft 338kts
29-Jul-18 14:37 35.561865 -107.224953 84 24188ft 327kts
29-Jul-18 14:38 35.567097 -107.114712 84 22988ft 318kts
29-Jul-18 14:39 35.572181 -107.006674 84 21785ft 315kts
29-Jul-18 14:40 35.577144 -106.899334 84 20588ft 315kts
29-Jul-18 14:41 35.582080 -106.792578 84 19389ft 310kts
29-Jul-18 14:42 35.586935 -106.687844 84 18186ft 303kts
29-Jul-18 14:43 35.595726 -106.585529 80 16996ft 301kts
29-Jul-18 14:44 35.602367 -106.483173 81 15800ft 297kts
29-Jul-18 14:45 35.609244 -106.389313 81 15000ft 252kts
29-Jul-18 14:46 35.613429 -106.310121 84 14971ft 231kts
29-Jul-18 14:47 35.615780 -106.220684 85 14974ft 270kts
29-Jul-18 14:48 35.618104 -106.134108 84 14965ft 238kts
29-Jul-18 14:49 35.639622 -106.062965 42 14401ft 231kts
29-Jul-18 14:50 35.691872 -106.026637 358 13248ft 216kts
29-Jul-18 14:51 35.745608 -106.032115 336 12926ft 177kts
29-Jul-18 14:52 35.788053 -106.053632 322 11902ft 189kts
29-Jul-18 14:53 35.827843 -106.096423 302 10736ft 182kts
29-Jul-18 14:54 35.854193 -106.141568 303 9545ft 143kts
29-Jul-18 14:55 35.865733 -106.186365 280 8374ft 136kts
29-Jul-18 14:56 35.873408 -106.231712 279 7583ft 127kts
29-Jul-18 14:57 35.879487 -106.267085 277 7175ft 54kts
29-Jul-18 14:58 35.881433 -106.274065 14 7175ft 7kts
29-Jul-18 14:59 35.881759 -106.274422 295 7175ft 0kts
29-Jul-18 15:00 35.881759 -106.274422 295 7175ft 0kts
29-Jul-18 15:01 35.881759 -106.274422 295 7175ft 0kts
29-Jul-18 15:02 35.881759 -106.274422 295 7175ft 0kts
29-Jul-18 15:03 35.881759 -106.274422 295 7175ft 0kts
29-Jul-18 15:04 35.881758 -106.274422 295 7175ft 0kts
29-Jul-18 15:05 35.881758 -106.274422 295 7175ft 0kts

Navigation Log

Ident Type
Flight plan parsing failed, navigation log unavailable